createdAt,value
2022-09-09T00:00:23.161Z,13.70
2022-09-09T00:03:01.982Z,13.60
2022-09-09T00:05:38.497Z,13.60
2022-09-09T00:08:20.495Z,13.60
2022-09-09T00:10:56.530Z,13.60
2022-09-09T00:13:30.203Z,13.60
2022-09-09T00:16:04.562Z,13.60
2022-09-09T00:18:42.064Z,13.60
2022-09-09T00:21:16.567Z,13.60
2022-09-09T00:23:52.910Z,13.50
2022-09-09T00:26:31.283Z,13.50
2022-09-09T00:29:06.948Z,13.50
2022-09-09T00:31:35.262Z,13.50
2022-09-09T00:34:12.064Z,13.50
2022-09-09T00:36:41.108Z,13.50
2022-09-09T00:39:19.719Z,13.50
2022-09-09T00:42:00.236Z,13.50
2022-09-09T00:44:36.032Z,13.50
2022-09-09T00:47:14.884Z,13.50
2022-09-09T00:50:01.035Z,13.50
2022-09-09T00:52:41.306Z,13.50
2022-09-09T00:55:21.669Z,13.50
2022-09-09T00:57:53.943Z,13.50
2022-09-09T01:00:24.907Z,13.40
2022-09-09T01:03:10.841Z,13.40
2022-09-09T01:05:45.704Z,13.40
2022-09-09T01:08:31.106Z,13.40
2022-09-09T01:11:01.488Z,13.40
2022-09-09T01:13:34.715Z,13.40
2022-09-09T01:16:13.286Z,13.40
2022-09-09T01:18:46.267Z,13.40
2022-09-09T01:21:23.897Z,13.40
2022-09-09T01:24:10.613Z,13.40
2022-09-09T01:27:05.505Z,13.40
2022-09-09T01:29:34.831Z,13.40
2022-09-09T01:32:24.203Z,13.50
2022-09-09T01:34:54.143Z,13.40
2022-09-09T01:37:23.418Z,13.50
2022-09-09T01:39:51.694Z,13.50
2022-09-09T01:42:20.156Z,13.50
2022-09-09T01:45:35.778Z,13.50
2022-09-09T01:53:02.350Z,13.50
2022-09-09T02:32:36.252Z,13.40
2022-09-09T02:35:15.428Z,13.30
2022-09-09T02:37:48.160Z,13.30
2022-09-09T02:40:19.418Z,13.30
2022-09-09T02:42:58.031Z,13.30
2022-09-09T02:45:43.550Z,13.30
2022-09-09T02:48:37.033Z,13.30
2022-09-09T02:51:23.907Z,13.30
2022-09-09T02:54:02.468Z,13.30
2022-09-09T02:56:59.032Z,13.20
2022-09-09T02:59:50.904Z,13.20
2022-09-09T03:03:39.030Z,13.30
2022-09-09T03:06:49.996Z,13.30
2022-09-09T03:09:43.204Z,13.30
2022-09-09T03:12:26.047Z,13.30
2022-09-09T03:15:30.181Z,13.30
2022-09-09T03:18:09.015Z,13.30
2022-09-09T03:20:59.146Z,13.20
2022-09-09T03:23:33.373Z,13.20
2022-09-09T03:26:11.479Z,13.30
2022-09-09T03:28:57.202Z,13.20
2022-09-09T03:31:26.680Z,13.30
2022-09-09T03:33:59.107Z,13.30
2022-09-09T03:36:29.185Z,13.40
2022-09-09T03:38:58.914Z,13.40
2022-09-09T03:41:29.788Z,13.40
2022-09-09T03:43:58.357Z,13.40
2022-09-09T03:46:28.819Z,13.40
2022-09-09T03:48:57.276Z,13.40
2022-09-09T03:51:25.700Z,13.40
2022-09-09T03:53:57.984Z,13.50
2022-09-09T03:56:29.353Z,13.50
2022-09-09T03:59:02.127Z,13.50
2022-09-09T04:01:36.183Z,13.50
2022-09-09T04:04:04.834Z,13.50
2022-09-09T04:06:32.994Z,13.50
2022-09-09T04:09:04.312Z,13.50
2022-09-09T04:11:35.291Z,13.50
2022-09-09T04:14:05.335Z,13.50
2022-09-09T04:16:33.889Z,13.50
2022-09-09T04:19:05.617Z,13.50
2022-09-09T04:21:59.385Z,13.50
2022-09-09T04:25:03.594Z,13.50
2022-09-09T04:27:41.164Z,13.40
2022-09-09T04:30:44.652Z,13.40
2022-09-09T04:33:21.417Z,13.40
2022-09-09T04:36:14.375Z,13.30
2022-09-09T04:38:45.535Z,13.30
2022-09-09T04:41:33.236Z,13.30
2022-09-09T04:45:12.950Z,13.20
2022-09-09T04:49:41.713Z,13.20
2022-09-09T04:53:42.318Z,13.20
2022-09-09T05:11:48.990Z,13.20
2022-09-09T05:19:08.153Z,13.20
2022-09-09T05:22:32.448Z,13.20
2022-09-09T05:25:23.861Z,13.30
2022-09-09T05:28:32.246Z,13.30
2022-09-09T05:31:16.427Z,13.40
2022-09-09T05:34:00.179Z,13.50
2022-09-09T05:36:30.930Z,13.50
2022-09-09T05:39:30.265Z,13.60
2022-09-09T05:42:52.423Z,13.70
2022-09-09T05:47:13.103Z,13.70
2022-09-09T05:53:18.263Z,13.90
2022-09-09T05:55:57.137Z,14.00
2022-09-09T05:58:46.587Z,14.00
2022-09-09T06:01:26.755Z,14.10
2022-09-09T06:04:02.456Z,14.30
2022-09-09T06:06:40.969Z,14.30
2022-09-09T06:09:47.768Z,14.50
2022-09-09T06:12:30.060Z,14.70
2022-09-09T06:15:12.653Z,14.90
2022-09-09T06:18:07.390Z,15.10
2022-09-09T06:20:51.681Z,15.20
2022-09-09T06:23:45.501Z,15.40
2022-09-09T06:26:26.605Z,15.50
2022-09-09T06:29:40.386Z,15.60
2022-09-09T06:32:14.251Z,15.80
2022-09-09T06:34:52.496Z,15.90
2022-09-09T06:38:00.488Z,16.00
2022-09-09T06:40:59.827Z,16.20
2022-09-09T06:43:42.100Z,16.30
2022-09-09T06:49:47.756Z,16.80
2022-09-09T06:52:19.349Z,17.00
2022-09-09T06:58:10.553Z,17.30
2022-09-09T07:00:43.497Z,17.40
2022-09-09T07:03:19.531Z,17.50
2022-09-09T07:06:07.494Z,17.50
2022-09-09T07:08:57.194Z,17.50
2022-09-09T07:12:30.850Z,17.50
2022-09-09T07:15:37.273Z,17.50
2022-09-09T07:18:16.075Z,17.50
2022-09-09T07:20:59.702Z,17.50
2022-09-09T07:23:36.243Z,17.60
2022-09-09T07:26:09.436Z,17.40
2022-09-09T07:28:37.937Z,17.40
2022-09-09T07:31:08.390Z,17.50
2022-09-09T07:33:38.210Z,17.70
2022-09-09T07:36:09.543Z,17.80
2022-09-09T07:38:41.654Z,18.00
2022-09-09T07:41:12.758Z,18.20
2022-09-09T07:43:41.736Z,18.30
2022-09-09T07:46:13.043Z,18.30
2022-09-09T07:48:46.478Z,18.40
2022-09-09T07:51:19.288Z,18.50
2022-09-09T07:53:47.890Z,18.60
2022-09-09T07:56:18.674Z,18.60
2022-09-09T07:58:47.992Z,18.70
2022-09-09T08:01:19.527Z,18.70
2022-09-09T08:03:55.985Z,18.80
2022-09-09T08:06:28.795Z,19.00
2022-09-09T08:08:59.402Z,19.20
2022-09-09T08:11:39.273Z,19.10
2022-09-09T08:14:21.650Z,19.30
2022-09-09T08:16:58.268Z,19.30
2022-09-09T08:19:31.991Z,19.40
2022-09-09T08:22:04.280Z,19.70
2022-09-09T08:24:35.697Z,20.30
2022-09-09T08:27:07.493Z,20.70
2022-09-09T08:29:35.558Z,21.10
2022-09-09T08:32:05.464Z,21.50
2022-09-09T08:34:36.073Z,22.10
2022-09-09T08:37:09.163Z,22.50
2022-09-09T08:39:40.325Z,23.00
2022-09-09T08:42:35.906Z,23.50
2022-09-09T08:45:17.020Z,24.00
2022-09-09T08:47:56.675Z,24.20
2022-09-09T08:50:28.946Z,24.30
2022-09-09T08:53:08.242Z,24.00
2022-09-09T08:55:42.524Z,23.70
2022-09-09T08:58:16.051Z,23.20
2022-09-09T09:01:02.327Z,22.70
2022-09-09T09:03:40.360Z,22.10
2022-09-09T09:06:17.954Z,21.60
2022-09-09T09:08:52.435Z,21.20
2022-09-09T09:11:20.690Z,20.80
2022-09-09T09:13:54.631Z,20.60
2022-09-09T09:16:28.907Z,20.40
2022-09-09T09:18:58.787Z,20.40
2022-09-09T09:21:41.407Z,20.20
2022-09-09T09:24:21.500Z,20.10
2022-09-09T09:26:51.325Z,20.10
2022-09-09T09:29:23.156Z,20.40
2022-09-09T09:31:55.628Z,20.90
2022-09-09T09:34:26.562Z,21.00
2022-09-09T09:36:59.039Z,21.30
2022-09-09T09:42:23.929Z,22.30
2022-09-09T09:45:09.506Z,22.80
2022-09-09T09:47:44.223Z,23.20
2022-09-09T09:50:28.063Z,23.40
2022-09-09T09:53:01.182Z,23.20
2022-09-09T09:55:36.903Z,23.50
2022-09-09T09:58:22.590Z,23.80
2022-09-09T10:01:05.266Z,24.10
2022-09-09T10:03:42.183Z,24.50
2022-09-09T10:06:39.963Z,24.60
2022-09-09T10:09:29.544Z,24.60
2022-09-09T10:12:10.700Z,24.50
2022-09-09T10:14:53.359Z,24.50
2022-09-09T10:17:39.013Z,24.70
2022-09-09T10:20:34.716Z,24.70
2022-09-09T10:23:18.620Z,24.70
2022-09-09T10:26:15.151Z,24.60
2022-09-09T10:29:22.696Z,24.60
2022-09-09T10:32:09.357Z,24.30
2022-09-09T10:35:00.775Z,24.00
2022-09-09T10:37:54.301Z,24.00
2022-09-09T10:40:36.822Z,24.00
2022-09-09T10:43:27.666Z,24.00
2022-09-09T10:46:06.768Z,23.80
2022-09-09T10:49:05.952Z,23.50
2022-09-09T10:51:52.047Z,23.50
2022-09-09T10:54:41.869Z,23.60
2022-09-09T10:57:21.859Z,23.70
2022-09-09T11:00:02.429Z,23.90
2022-09-09T11:02:35.329Z,24.00
2022-09-09T11:05:13.414Z,24.40
2022-09-09T11:07:54.387Z,24.40
2022-09-09T11:10:34.030Z,24.80
2022-09-09T11:13:13.980Z,25.30
2022-09-09T11:15:49.777Z,25.30
2022-09-09T11:18:24.692Z,25.20
2022-09-09T11:21:01.557Z,25.50
2022-09-09T11:23:44.145Z,25.50
2022-09-09T11:26:22.463Z,25.70
2022-09-09T11:29:12.268Z,25.60
2022-09-09T11:31:52.097Z,25.10
2022-09-09T11:34:42.450Z,24.70
2022-09-09T11:37:47.423Z,24.50
2022-09-09T11:40:23.582Z,24.00
2022-09-09T11:43:07.256Z,23.70
2022-09-09T11:45:43.301Z,23.40
2022-09-09T11:48:30.488Z,23.60
2022-09-09T11:51:04.655Z,23.90
2022-09-09T11:53:50.642Z,24.10
2022-09-09T11:56:33.931Z,24.40
2022-09-09T11:59:07.518Z,24.80
2022-09-09T12:01:43.738Z,24.80
2022-09-09T12:04:40.572Z,24.80
2022-09-09T12:07:32.251Z,24.90
2022-09-09T12:10:07.186Z,24.90
2022-09-09T12:12:44.271Z,25.20
2022-09-09T12:15:32.001Z,25.20
2022-09-09T12:18:04.383Z,25.40
2022-09-09T12:20:40.001Z,25.40
2022-09-09T12:23:33.736Z,25.50
2022-09-09T12:26:20.207Z,25.60
2022-09-09T12:29:03.331Z,25.40
2022-09-09T12:31:45.711Z,25.20
2022-09-09T12:34:23.332Z,24.90
2022-09-09T12:37:01.658Z,24.60
2022-09-09T12:39:39.222Z,24.40
2022-09-09T12:42:23.694Z,24.20
2022-09-09T12:45:01.948Z,24.00
2022-09-09T12:47:44.514Z,23.80
2022-09-09T12:50:24.569Z,23.50
2022-09-09T12:52:59.807Z,23.40
2022-09-09T12:55:35.107Z,23.10
2022-09-09T12:58:09.224Z,23.00
2022-09-09T13:00:40.711Z,22.80
2022-09-09T13:03:23.222Z,22.60
2022-09-09T13:06:00.816Z,22.40
2022-09-09T13:08:37.082Z,22.20
2022-09-09T13:11:14.478Z,22.00
2022-09-09T13:13:46.499Z,21.70
2022-09-09T13:16:34.904Z,21.30
2022-09-09T13:19:22.100Z,21.00
2022-09-09T13:21:59.681Z,20.70
2022-09-09T13:24:34.638Z,20.30
2022-09-09T13:27:08.228Z,20.30
2022-09-09T13:29:42.003Z,20.20
2022-09-09T13:32:20.961Z,20.10
2022-09-09T13:34:59.388Z,19.80
2022-09-09T13:37:38.921Z,19.60
2022-09-09T13:40:24.102Z,19.40
2022-09-09T13:43:01.270Z,19.20
2022-09-09T13:45:36.355Z,18.90
2022-09-09T13:48:15.003Z,18.90
2022-09-09T13:51:06.605Z,18.70
2022-09-09T13:53:39.558Z,18.60
2022-09-09T13:56:15.182Z,18.70
2022-09-09T13:58:47.554Z,18.90
2022-09-09T14:01:29.354Z,19.00
2022-09-09T14:04:01.947Z,19.20
2022-09-09T14:06:34.310Z,19.60
2022-09-09T14:09:09.415Z,20.00
2022-09-09T14:11:44.365Z,20.00
2022-09-09T14:14:21.726Z,19.90
2022-09-09T14:16:54.828Z,19.90
2022-09-09T14:19:26.221Z,19.90
2022-09-09T14:21:56.979Z,19.90
2022-09-09T14:24:36.233Z,19.90
2022-09-09T14:27:09.073Z,19.90
2022-09-09T14:29:40.963Z,19.90
2022-09-09T14:32:13.018Z,19.90
2022-09-09T14:34:44.921Z,20.00
2022-09-09T14:37:22.920Z,20.00
2022-09-09T14:40:02.231Z,19.90
2022-09-09T14:42:33.923Z,20.00
2022-09-09T14:45:05.575Z,20.00
2022-09-09T14:47:37.894Z,20.00
2022-09-09T14:50:10.403Z,19.90
2022-09-09T14:52:42.181Z,19.90
2022-09-09T14:55:18.241Z,19.90
2022-09-09T14:57:52.580Z,19.80
2022-09-09T15:00:22.824Z,19.70
2022-09-09T15:02:56.440Z,19.70
2022-09-09T15:05:39.724Z,19.60
2022-09-09T15:08:14.029Z,19.60
2022-09-09T15:10:51.524Z,19.50
2022-09-09T15:13:24.877Z,19.40
2022-09-09T15:16:05.809Z,19.30
2022-09-09T15:18:37.758Z,19.20
2022-09-09T15:21:11.049Z,19.00
2022-09-09T15:23:46.230Z,19.00
2022-09-09T15:26:24.544Z,18.90
2022-09-09T15:29:10.947Z,18.70
2022-09-09T15:31:43.470Z,18.70
2022-09-09T15:34:15.637Z,18.70
2022-09-09T15:36:50.014Z,18.60
2022-09-09T15:39:25.412Z,18.60
2022-09-09T15:42:01.829Z,18.60
2022-09-09T15:44:41.793Z,18.50
2022-09-09T15:47:18.285Z,18.40
2022-09-09T15:49:55.531Z,18.50
2022-09-09T15:52:29.072Z,18.40
2022-09-09T15:55:01.240Z,18.40
2022-09-09T15:57:33.835Z,18.40
2022-09-09T16:00:05.908Z,18.30
2022-09-09T16:02:38.063Z,18.30
2022-09-09T16:05:09.849Z,18.30
2022-09-09T16:07:42.283Z,18.30
2022-09-09T16:10:16.189Z,18.20
2022-09-09T16:12:58.046Z,18.10
2022-09-09T16:15:32.401Z,18.00
2022-09-09T16:18:05.491Z,17.90
2022-09-09T16:20:37.727Z,17.70
2022-09-09T16:23:09.721Z,17.60
2022-09-09T16:25:41.072Z,17.50
2022-09-09T16:28:18.590Z,17.40
2022-09-09T16:30:53.953Z,17.30
2022-09-09T16:33:31.556Z,17.30
2022-09-09T16:36:12.578Z,17.20
2022-09-09T16:38:55.598Z,17.10
2022-09-09T16:41:32.303Z,17.10
2022-09-09T16:44:08.284Z,17.20
2022-09-09T16:46:43.893Z,17.10
2022-09-09T16:49:18.091Z,17.10
2022-09-09T16:51:56.196Z,17.00
2022-09-09T16:54:39.607Z,17.10
2022-09-09T16:57:11.158Z,17.10
2022-09-09T16:59:54.202Z,17.20
2022-09-09T17:02:26.219Z,17.20
2022-09-09T17:05:04.008Z,17.30
2022-09-09T17:07:43.492Z,17.30
2022-09-09T17:10:21.654Z,17.20
2022-09-09T17:12:56.134Z,17.20
2022-09-09T17:15:29.414Z,17.20
2022-09-09T17:18:00.672Z,17.30
2022-09-09T17:20:45.942Z,17.40
2022-09-09T17:23:22.663Z,17.40
2022-09-09T17:26:03.183Z,17.40
2022-09-09T17:28:40.368Z,17.50
2022-09-09T17:31:20.643Z,17.40
2022-09-09T17:33:54.374Z,17.40
2022-09-09T17:36:26.546Z,17.40
2022-09-09T17:39:02.114Z,17.40
2022-09-09T17:41:34.415Z,17.40
2022-09-09T17:46:48.058Z,17.20
2022-09-09T17:49:22.586Z,17.20
2022-09-09T17:51:55.471Z,17.10
2022-09-09T17:54:29.337Z,17.00
2022-09-09T17:57:09.842Z,17.00
2022-09-09T17:59:46.349Z,16.90
2022-09-09T18:02:26.542Z,16.70
2022-09-09T18:05:05.699Z,16.60
2022-09-09T18:07:53.187Z,16.60
2022-09-09T18:10:36.661Z,16.50
2022-09-09T18:13:16.195Z,16.30
2022-09-09T18:15:56.257Z,16.20
2022-09-09T18:18:30.080Z,16.20
2022-09-09T18:21:09.953Z,16.00
2022-09-09T18:23:42.276Z,16.00
2022-09-09T18:26:18.330Z,15.90
2022-09-09T18:28:52.856Z,15.80
2022-09-09T18:31:26.430Z,15.70
2022-09-09T18:34:06.582Z,15.70
2022-09-09T18:36:52.105Z,15.70
2022-09-09T18:39:32.254Z,15.70
2022-09-09T18:42:06.874Z,15.60
2022-09-09T18:44:40.237Z,15.70
2022-09-09T18:47:12.715Z,15.60
2022-09-09T18:49:48.265Z,15.60
2022-09-09T18:52:20.266Z,15.60
2022-09-09T18:54:52.007Z,15.60
2022-09-09T18:57:23.458Z,15.60
2022-09-09T19:00:01.359Z,15.60
2022-09-09T19:02:33.834Z,15.60
2022-09-09T19:05:09.073Z,15.60
2022-09-09T19:07:46.053Z,15.60
2022-09-09T19:10:17.834Z,15.50
2022-09-09T19:12:49.671Z,15.50
2022-09-09T19:15:27.572Z,15.40
2022-09-09T19:18:05.748Z,15.30
2022-09-09T19:20:40.331Z,15.40
2022-09-09T19:23:11.550Z,15.30
2022-09-09T19:25:46.074Z,15.30
2022-09-09T19:28:17.531Z,15.30
2022-09-09T19:30:52.480Z,15.30
2022-09-09T19:33:27.377Z,15.30
2022-09-09T19:36:06.416Z,15.30
2022-09-09T19:38:42.585Z,15.30
2022-09-09T19:41:22.261Z,15.30
2022-09-09T19:43:56.128Z,15.20
2022-09-09T19:46:28.691Z,15.20
2022-09-09T19:49:01.998Z,15.20
2022-09-09T19:51:37.338Z,15.10
2022-09-09T19:54:14.868Z,15.10
2022-09-09T19:56:48.331Z,15.10
2022-09-09T19:59:24.076Z,15.00
2022-09-09T20:01:55.572Z,15.00
2022-09-09T20:04:30.360Z,15.00
2022-09-09T20:07:04.270Z,15.10
2022-09-09T20:09:35.927Z,15.10
2022-09-09T20:12:10.347Z,15.10
2022-09-09T20:14:41.999Z,15.10
2022-09-09T20:17:16.259Z,15.10
2022-09-09T20:19:49.819Z,15.10
2022-09-09T20:22:23.112Z,15.20
2022-09-09T20:24:54.417Z,15.20
2022-09-09T20:27:29.848Z,15.10
2022-09-09T20:30:09.646Z,15.10
2022-09-09T20:32:44.527Z,15.20
2022-09-09T20:35:19.415Z,15.20
2022-09-09T20:37:55.671Z,15.20
2022-09-09T20:40:33.589Z,15.20
2022-09-09T20:43:04.921Z,15.20
2022-09-09T20:45:40.673Z,15.20
2022-09-09T20:48:14.070Z,15.20
2022-09-09T20:50:45.009Z,15.20
2022-09-09T20:53:21.105Z,15.20
2022-09-09T20:55:57.965Z,15.10
2022-09-09T20:58:33.574Z,15.10
2022-09-09T21:01:12.806Z,15.00
2022-09-09T21:03:57.707Z,15.00
2022-09-09T21:06:38.560Z,14.90
2022-09-09T21:09:27.687Z,14.90
2022-09-09T21:12:01.349Z,14.80
2022-09-09T21:14:33.706Z,14.80
2022-09-09T21:17:04.504Z,14.80
2022-09-09T21:19:37.838Z,14.70
2022-09-09T21:22:14.682Z,14.70
2022-09-09T21:24:45.826Z,14.70
2022-09-09T21:27:15.534Z,14.70
2022-09-09T21:29:45.141Z,14.70
2022-09-09T21:32:14.699Z,14.70
2022-09-09T21:34:46.813Z,14.70
2022-09-09T21:37:16.419Z,14.60
2022-09-09T21:39:48.326Z,14.60
2022-09-09T21:42:23.212Z,14.60
2022-09-09T21:44:52.921Z,14.60
2022-09-09T21:47:22.374Z,14.60
2022-09-09T21:49:54.985Z,14.60
2022-09-09T21:52:24.712Z,14.60
2022-09-09T21:54:56.145Z,14.60
2022-09-09T21:57:26.179Z,14.60
2022-09-09T21:59:58.961Z,14.60
2022-09-09T22:02:29.707Z,14.50
2022-09-09T22:04:59.045Z,14.50
2022-09-09T22:07:32.799Z,14.50
2022-09-09T22:10:03.532Z,14.40
2022-09-09T22:12:33.356Z,14.40
2022-09-09T22:15:02.952Z,14.40
2022-09-09T22:17:36.244Z,14.30
2022-09-09T22:20:06.722Z,14.20
2022-09-09T22:22:36.113Z,14.10
2022-09-09T22:25:10.032Z,14.10
2022-09-09T22:27:39.536Z,14.10
2022-09-09T22:30:10.991Z,14.10
2022-09-09T22:32:43.718Z,14.10
2022-09-09T22:35:13.263Z,14.10
2022-09-09T22:37:47.693Z,14.00
2022-09-09T22:40:19.073Z,14.00
2022-09-09T22:42:52.544Z,13.90
2022-09-09T22:45:23.106Z,13.90
2022-09-09T22:47:55.266Z,13.90
2022-09-09T22:50:27.249Z,13.90
2022-09-09T22:52:59.560Z,13.90
2022-09-09T22:55:30.647Z,13.90
2022-09-09T22:58:00.357Z,13.90
2022-09-09T23:00:30.412Z,13.90
2022-09-09T23:02:59.219Z,13.90
2022-09-09T23:05:30.876Z,13.90
2022-09-09T23:07:59.838Z,13.90
2022-09-09T23:10:33.574Z,13.90
2022-09-09T23:13:05.538Z,13.90
2022-09-09T23:15:34.327Z,13.90
2022-09-09T23:18:06.469Z,13.90
2022-09-09T23:20:37.892Z,13.90
2022-09-09T23:23:09.155Z,13.90
2022-09-09T23:25:39.713Z,13.90
2022-09-09T23:28:08.557Z,13.90
2022-09-09T23:30:45.646Z,13.90
2022-09-09T23:33:27.028Z,13.90
2022-09-09T23:36:08.457Z,13.80
2022-09-09T23:38:39.610Z,13.80
2022-09-09T23:41:14.118Z,13.80
2022-09-09T23:43:45.214Z,13.70
2022-09-09T23:46:18.606Z,13.70
2022-09-09T23:48:54.003Z,13.70
2022-09-09T23:51:29.529Z,13.60
2022-09-09T23:54:11.650Z,13.60
2022-09-09T23:56:44.716Z,13.60
2022-09-09T23:59:16.598Z,13.50
